sensor_id;sensor_type;location;lat;lon;timestamp;P1;durP1;ratioP1;P2;durP2;ratioP2
9823;SDS011;4951;50.778;7.196;2022-12-26T00:00:09;3.50;;;1.70;;
9823;SDS011;4951;50.778;7.196;2022-12-26T00:02:37;2.17;;;1.60;;
9823;SDS011;4951;50.778;7.196;2022-12-26T00:05:04;2.60;;;1.60;;
9823;SDS011;4951;50.778;7.196;2022-12-26T00:07:32;2.00;;;1.60;;
9823;SDS011;4951;50.778;7.196;2022-12-26T00:10:00;3.20;;;1.70;;
9823;SDS011;4951;50.778;7.196;2022-12-26T00:12:27;3.40;;;1.80;;
9823;SDS011;4951;50.778;7.196;2022-12-26T00:14:54;2.07;;;1.57;;
9823;SDS011;4951;50.778;7.196;2022-12-26T00:17:22;1.90;;;1.70;;
9823;SDS011;4951;50.778;7.196;2022-12-26T00:19:49;3.40;;;1.50;;
9823;SDS011;4951;50.778;7.196;2022-12-26T00:22:16;3.67;;;2.00;;
9823;SDS011;4951;50.778;7.196;2022-12-26T00:24:43;2.13;;;1.63;;
9823;SDS011;4951;50.778;7.196;2022-12-26T00:27:11;3.00;;;1.80;;
9823;SDS011;4951;50.778;7.196;2022-12-26T00:29:38;2.43;;;1.87;;
9823;SDS011;4951;50.778;7.196;2022-12-26T00:32:06;2.03;;;1.80;;
9823;SDS011;4951;50.778;7.196;2022-12-26T00:34:33;4.10;;;2.20;;
9823;SDS011;4951;50.778;7.196;2022-12-26T00:37:00;2.00;;;1.80;;
9823;SDS011;4951;50.778;7.196;2022-12-26T00:39:28;2.27;;;1.90;;
9823;SDS011;4951;50.778;7.196;2022-12-26T00:41:55;2.13;;;1.83;;
9823;SDS011;4951;50.778;7.196;2022-12-26T00:44:23;2.57;;;2.00;;
9823;SDS011;4951;50.778;7.196;2022-12-26T00:46:52;3.20;;;1.87;;
9823;SDS011;4951;50.778;7.196;2022-12-26T00:49:19;3.80;;;2.10;;
9823;SDS011;4951;50.778;7.196;2022-12-26T00:51:46;4.60;;;2.40;;
9823;SDS011;4951;50.778;7.196;2022-12-26T00:54:13;2.80;;;2.00;;
9823;SDS011;4951;50.778;7.196;2022-12-26T00:56:40;3.90;;;2.30;;
9823;SDS011;4951;50.778;7.196;2022-12-26T00:59:07;4.00;;;2.30;;
9823;SDS011;4951;50.778;7.196;2022-12-26T01:01:35;3.23;;;2.17;;
9823;SDS011;4951;50.778;7.196;2022-12-26T01:04:02;3.57;;;2.30;;
9823;SDS011;4951;50.778;7.196;2022-12-26T01:06:29;2.20;;;2.00;;
9823;SDS011;4951;50.778;7.196;2022-12-26T01:08:56;2.93;;;2.40;;
9823;SDS011;4951;50.778;7.196;2022-12-26T01:11:24;3.17;;;2.20;;
9823;SDS011;4951;50.778;7.196;2022-12-26T01:14:06;3.50;;;2.50;;
9823;SDS011;4951;50.778;7.196;2022-12-26T01:16:35;2.90;;;2.13;;
9823;SDS011;4951;50.778;7.196;2022-12-26T01:19:03;2.83;;;2.10;;
9823;SDS011;4951;50.778;7.196;2022-12-26T01:21:31;3.20;;;2.10;;
9823;SDS011;4951;50.778;7.196;2022-12-26T01:23:59;3.47;;;2.30;;
9823;SDS011;4951;50.778;7.196;2022-12-26T01:26:28;2.87;;;2.57;;
9823;SDS011;4951;50.778;7.196;2022-12-26T01:28:55;3.43;;;2.20;;
9823;SDS011;4951;50.778;7.196;2022-12-26T01:31:22;4.27;;;2.10;;
9823;SDS011;4951;50.778;7.196;2022-12-26T01:33:51;4.53;;;2.20;;
9823;SDS011;4951;50.778;7.196;2022-12-26T01:36:18;2.73;;;2.10;;
9823;SDS011;4951;50.778;7.196;2022-12-26T01:38:45;3.50;;;2.03;;
9823;SDS011;4951;50.778;7.196;2022-12-26T01:41:14;4.13;;;2.17;;
9823;SDS011;4951;50.778;7.196;2022-12-26T01:43:45;3.47;;;2.10;;
9823;SDS011;4951;50.778;7.196;2022-12-26T01:46:18;3.47;;;2.10;;
9823;SDS011;4951;50.778;7.196;2022-12-26T01:48:50;5.83;;;2.53;;
9823;SDS011;4951;50.778;7.196;2022-12-26T01:51:18;5.43;;;2.67;;
9823;SDS011;4951;50.778;7.196;2022-12-26T01:53:48;4.73;;;2.50;;
9823;SDS011;4951;50.778;7.196;2022-12-26T01:56:18;4.80;;;2.20;;
9823;SDS011;4951;50.778;7.196;2022-12-26T01:58:52;3.43;;;2.37;;
9823;SDS011;4951;50.778;7.196;2022-12-26T02:01:23;3.13;;;2.13;;
9823;SDS011;4951;50.778;7.196;2022-12-26T02:03:55;2.57;;;2.07;;
9823;SDS011;4951;50.778;7.196;2022-12-26T02:06:39;3.20;;;2.30;;
9823;SDS011;4951;50.778;7.196;2022-12-26T02:09:07;2.50;;;1.87;;
9823;SDS011;4951;50.778;7.196;2022-12-26T02:11:35;4.53;;;2.40;;
9823;SDS011;4951;50.778;7.196;2022-12-26T02:14:06;2.53;;;2.23;;
9823;SDS011;4951;50.778;7.196;2022-12-26T02:16:34;2.43;;;1.80;;
9823;SDS011;4951;50.778;7.196;2022-12-26T02:19:05;4.07;;;2.23;;
9823;SDS011;4951;50.778;7.196;2022-12-26T02:21:51;2.90;;;2.10;;
9823;SDS011;4951;50.778;7.196;2022-12-26T02:24:41;3.47;;;1.90;;
9823;SDS011;4951;50.778;7.196;2022-12-26T02:27:34;3.40;;;2.10;;
9823;SDS011;4951;50.778;7.196;2022-12-26T02:33:09;3.57;;;2.13;;
9823;SDS011;4951;50.778;7.196;2022-12-26T02:35:48;2.53;;;2.10;;
9823;SDS011;4951;50.778;7.196;2022-12-26T02:38:33;2.27;;;2.07;;
9823;SDS011;4951;50.778;7.196;2022-12-26T02:41:13;4.90;;;2.33;;
9823;SDS011;4951;50.778;7.196;2022-12-26T02:43:52;2.57;;;2.13;;
9823;SDS011;4951;50.778;7.196;2022-12-26T02:46:53;4.90;;;2.30;;
9823;SDS011;4951;50.778;7.196;2022-12-26T02:49:31;3.60;;;2.13;;
9823;SDS011;4951;50.778;7.196;2022-12-26T02:52:24;6.20;;;2.67;;
9823;SDS011;4951;50.778;7.196;2022-12-26T02:55:14;4.40;;;2.40;;
9823;SDS011;4951;50.778;7.196;2022-12-26T02:58:05;3.63;;;2.33;;
9823;SDS011;4951;50.778;7.196;2022-12-26T03:00:59;4.50;;;2.70;;
9823;SDS011;4951;50.778;7.196;2022-12-26T03:03:51;3.20;;;2.30;;
9823;SDS011;4951;50.778;7.196;2022-12-26T03:06:37;4.27;;;2.70;;
9823;SDS011;4951;50.778;7.196;2022-12-26T03:09:30;3.20;;;2.47;;
9823;SDS011;4951;50.778;7.196;2022-12-26T03:12:23;3.47;;;2.60;;
9823;SDS011;4951;50.778;7.196;2022-12-26T03:15:17;3.67;;;2.60;;
9823;SDS011;4951;50.778;7.196;2022-12-26T03:17:48;3.27;;;2.50;;
9823;SDS011;4951;50.778;7.196;2022-12-26T03:20:19;4.70;;;2.50;;
9823;SDS011;4951;50.778;7.196;2022-12-26T03:22:50;5.43;;;2.40;;
9823;SDS011;4951;50.778;7.196;2022-12-26T03:25:23;3.45;;;2.30;;
9823;SDS011;4951;50.778;7.196;2022-12-26T03:28:21;4.97;;;2.60;;
9823;SDS011;4951;50.778;7.196;2022-12-26T03:30:50;3.27;;;2.60;;
9823;SDS011;4951;50.778;7.196;2022-12-26T03:33:17;4.13;;;2.50;;
9823;SDS011;4951;50.778;7.196;2022-12-26T03:36:09;4.57;;;2.67;;
9823;SDS011;4951;50.778;7.196;2022-12-26T03:38:39;3.67;;;2.63;;
9823;SDS011;4951;50.778;7.196;2022-12-26T03:41:20;5.43;;;2.30;;
9823;SDS011;4951;50.778;7.196;2022-12-26T03:44:16;3.43;;;2.20;;
9823;SDS011;4951;50.778;7.196;2022-12-26T03:47:14;4.03;;;2.30;;
9823;SDS011;4951;50.778;7.196;2022-12-26T03:50:05;4.40;;;2.23;;
9823;SDS011;4951;50.778;7.196;2022-12-26T03:52:58;3.77;;;2.27;;
9823;SDS011;4951;50.778;7.196;2022-12-26T03:55:54;3.70;;;2.40;;
9823;SDS011;4951;50.778;7.196;2022-12-26T03:58:45;3.93;;;2.33;;
9823;SDS011;4951;50.778;7.196;2022-12-26T04:01:33;2.77;;;2.30;;
9823;SDS011;4951;50.778;7.196;2022-12-26T04:04:21;2.60;;;1.97;;
9823;SDS011;4951;50.778;7.196;2022-12-26T04:07:09;3.10;;;2.13;;
9823;SDS011;4951;50.778;7.196;2022-12-26T04:10:00;2.97;;;2.10;;
9823;SDS011;4951;50.778;7.196;2022-12-26T04:12:49;4.57;;;2.30;;
9823;SDS011;4951;50.778;7.196;2022-12-26T04:15:38;3.20;;;2.10;;
9823;SDS011;4951;50.778;7.196;2022-12-26T04:18:30;3.73;;;2.40;;
9823;SDS011;4951;50.778;7.196;2022-12-26T04:21:20;4.70;;;2.23;;
9823;SDS011;4951;50.778;7.196;2022-12-26T04:24:11;3.60;;;2.20;;
9823;SDS011;4951;50.778;7.196;2022-12-26T04:27:00;2.80;;;2.47;;
9823;SDS011;4951;50.778;7.196;2022-12-26T04:29:48;3.00;;;1.80;;
9823;SDS011;4951;50.778;7.196;2022-12-26T04:32:34;3.70;;;2.07;;
9823;SDS011;4951;50.778;7.196;2022-12-26T04:35:27;2.97;;;1.80;;
9823;SDS011;4951;50.778;7.196;2022-12-26T04:38:18;2.63;;;2.20;;
9823;SDS011;4951;50.778;7.196;2022-12-26T04:41:05;3.80;;;1.93;;
9823;SDS011;4951;50.778;7.196;2022-12-26T04:43:53;3.63;;;2.00;;
9823;SDS011;4951;50.778;7.196;2022-12-26T04:46:34;3.87;;;1.93;;
9823;SDS011;4951;50.778;7.196;2022-12-26T04:49:06;2.73;;;1.97;;
9823;SDS011;4951;50.778;7.196;2022-12-26T04:51:53;3.83;;;2.17;;
9823;SDS011;4951;50.778;7.196;2022-12-26T04:54:21;3.47;;;2.00;;
9823;SDS011;4951;50.778;7.196;2022-12-26T04:56:48;2.47;;;1.90;;
9823;SDS011;4951;50.778;7.196;2022-12-26T04:59:17;1.90;;;1.73;;
9823;SDS011;4951;50.778;7.196;2022-12-26T05:01:45;4.60;;;2.03;;
9823;SDS011;4951;50.778;7.196;2022-12-26T05:04:30;3.10;;;2.30;;
9823;SDS011;4951;50.778;7.196;2022-12-26T05:07:15;2.73;;;1.77;;
9823;SDS011;4951;50.778;7.196;2022-12-26T05:10:03;2.93;;;2.00;;
9823;SDS011;4951;50.778;7.196;2022-12-26T05:12:32;2.17;;;1.67;;
9823;SDS011;4951;50.778;7.196;2022-12-26T05:15:01;2.97;;;1.70;;
9823;SDS011;4951;50.778;7.196;2022-12-26T05:17:28;3.17;;;2.07;;
9823;SDS011;4951;50.778;7.196;2022-12-26T05:20:13;3.50;;;2.30;;
9823;SDS011;4951;50.778;7.196;2022-12-26T05:22:57;2.63;;;1.90;;
9823;SDS011;4951;50.778;7.196;2022-12-26T05:25:44;2.20;;;1.70;;
9823;SDS011;4951;50.778;7.196;2022-12-26T05:28:31;2.80;;;1.77;;
9823;SDS011;4951;50.778;7.196;2022-12-26T05:31:09;4.67;;;2.10;;
9823;SDS011;4951;50.778;7.196;2022-12-26T05:33:38;3.77;;;1.93;;
9823;SDS011;4951;50.778;7.196;2022-12-26T05:36:23;3.47;;;1.90;;
9823;SDS011;4951;50.778;7.196;2022-12-26T05:38:53;2.33;;;1.70;;
9823;SDS011;4951;50.778;7.196;2022-12-26T05:41:21;2.20;;;1.80;;
9823;SDS011;4951;50.778;7.196;2022-12-26T05:43:48;2.43;;;1.90;;
9823;SDS011;4951;50.778;7.196;2022-12-26T05:46:20;1.87;;;1.60;;
9823;SDS011;4951;50.778;7.196;2022-12-26T05:48:47;2.10;;;1.77;;
9823;SDS011;4951;50.778;7.196;2022-12-26T05:51:15;1.93;;;1.70;;
9823;SDS011;4951;50.778;7.196;2022-12-26T05:53:42;2.77;;;1.40;;
9823;SDS011;4951;50.778;7.196;2022-12-26T05:56:09;1.50;;;1.40;;
9823;SDS011;4951;50.778;7.196;2022-12-26T05:58:38;2.70;;;1.37;;
9823;SDS011;4951;50.778;7.196;2022-12-26T06:01:07;2.17;;;1.60;;
9823;SDS011;4951;50.778;7.196;2022-12-26T06:03:37;2.00;;;1.40;;
9823;SDS011;4951;50.778;7.196;2022-12-26T06:06:06;3.10;;;1.60;;
9823;SDS011;4951;50.778;7.196;2022-12-26T06:08:33;2.67;;;1.60;;
9823;SDS011;4951;50.778;7.196;2022-12-26T06:11:04;3.33;;;1.60;;
9823;SDS011;4951;50.778;7.196;2022-12-26T06:13:32;2.23;;;1.50;;
9823;SDS011;4951;50.778;7.196;2022-12-26T06:16:02;3.07;;;1.70;;
9823;SDS011;4951;50.778;7.196;2022-12-26T06:18:31;3.57;;;1.43;;
9823;SDS011;4951;50.778;7.196;2022-12-26T06:20:59;2.57;;;1.50;;
9823;SDS011;4951;50.778;7.196;2022-12-26T06:23:29;1.70;;;1.50;;
9823;SDS011;4951;50.778;7.196;2022-12-26T06:25:56;1.77;;;1.57;;
9823;SDS011;4951;50.778;7.196;2022-12-26T06:28:23;3.03;;;1.83;;
9823;SDS011;4951;50.778;7.196;2022-12-26T06:30:51;1.40;;;1.27;;
9823;SDS011;4951;50.778;7.196;2022-12-26T06:33:19;2.23;;;1.53;;
9823;SDS011;4951;50.778;7.196;2022-12-26T06:35:49;2.83;;;1.80;;
9823;SDS011;4951;50.778;7.196;2022-12-26T06:38:18;1.90;;;1.70;;
9823;SDS011;4951;50.778;7.196;2022-12-26T06:40:45;2.57;;;1.60;;
9823;SDS011;4951;50.778;7.196;2022-12-26T06:43:12;3.50;;;1.97;;
9823;SDS011;4951;50.778;7.196;2022-12-26T06:45:39;6.90;;;2.30;;
9823;SDS011;4951;50.778;7.196;2022-12-26T06:48:06;5.97;;;1.80;;
9823;SDS011;4951;50.778;7.196;2022-12-26T06:50:34;2.83;;;1.90;;
9823;SDS011;4951;50.778;7.196;2022-12-26T06:53:01;3.10;;;1.97;;
9823;SDS011;4951;50.778;7.196;2022-12-26T06:55:30;3.50;;;2.00;;
9823;SDS011;4951;50.778;7.196;2022-12-26T06:57:57;17.80;;;8.00;;
9823;SDS011;4951;50.778;7.196;2022-12-26T07:00:24;7.87;;;3.00;;
9823;SDS011;4951;50.778;7.196;2022-12-26T07:02:51;8.13;;;3.77;;
9823;SDS011;4951;50.778;7.196;2022-12-26T07:05:18;3.27;;;2.20;;
9823;SDS011;4951;50.778;7.196;2022-12-26T07:07:48;3.07;;;1.77;;
9823;SDS011;4951;50.778;7.196;2022-12-26T07:10:16;4.97;;;2.30;;
9823;SDS011;4951;50.778;7.196;2022-12-26T07:12:45;3.73;;;1.63;;
9823;SDS011;4951;50.778;7.196;2022-12-26T07:15:17;2.80;;;1.67;;
9823;SDS011;4951;50.778;7.196;2022-12-26T07:17:44;1.23;;;1.10;;
9823;SDS011;4951;50.778;7.196;2022-12-26T07:20:11;1.03;;;0.90;;
9823;SDS011;4951;50.778;7.196;2022-12-26T07:22:38;1.70;;;1.20;;
9823;SDS011;4951;50.778;7.196;2022-12-26T07:25:06;0.83;;;0.83;;
9823;SDS011;4951;50.778;7.196;2022-12-26T07:27:34;1.57;;;1.13;;
9823;SDS011;4951;50.778;7.196;2022-12-26T07:30:03;1.20;;;1.10;;
9823;SDS011;4951;50.778;7.196;2022-12-26T07:32:30;1.30;;;1.20;;
9823;SDS011;4951;50.778;7.196;2022-12-26T07:34:57;1.50;;;1.10;;
9823;SDS011;4951;50.778;7.196;2022-12-26T07:37:24;1.47;;;1.37;;
9823;SDS011;4951;50.778;7.196;2022-12-26T07:39:51;1.30;;;1.20;;
9823;SDS011;4951;50.778;7.196;2022-12-26T07:42:18;1.43;;;1.20;;
9823;SDS011;4951;50.778;7.196;2022-12-26T07:44:46;1.20;;;1.10;;
9823;SDS011;4951;50.778;7.196;2022-12-26T07:47:16;1.67;;;1.40;;
9823;SDS011;4951;50.778;7.196;2022-12-26T07:49:43;1.70;;;1.60;;
9823;SDS011;4951;50.778;7.196;2022-12-26T07:52:10;3.23;;;1.30;;
9823;SDS011;4951;50.778;7.196;2022-12-26T07:54:38;1.43;;;1.33;;
9823;SDS011;4951;50.778;7.196;2022-12-26T07:57:05;2.10;;;1.70;;
9823;SDS011;4951;50.778;7.196;2022-12-26T07:59:32;1.30;;;1.20;;
9823;SDS011;4951;50.778;7.196;2022-12-26T08:01:59;2.43;;;1.50;;
9823;SDS011;4951;50.778;7.196;2022-12-26T08:04:30;1.37;;;1.27;;
9823;SDS011;4951;50.778;7.196;2022-12-26T08:06:57;1.60;;;1.50;;
9823;SDS011;4951;50.778;7.196;2022-12-26T08:09:24;1.77;;;1.20;;
9823;SDS011;4951;50.778;7.196;2022-12-26T08:11:51;1.30;;;1.20;;
9823;SDS011;4951;50.778;7.196;2022-12-26T08:14:18;1.90;;;1.43;;
9823;SDS011;4951;50.778;7.196;2022-12-26T08:16:45;1.80;;;1.70;;
9823;SDS011;4951;50.778;7.196;2022-12-26T08:19:12;1.23;;;1.13;;
9823;SDS011;4951;50.778;7.196;2022-12-26T08:21:41;2.70;;;2.03;;
9823;SDS011;4951;50.778;7.196;2022-12-26T08:24:08;3.53;;;1.97;;
9823;SDS011;4951;50.778;7.196;2022-12-26T08:26:35;2.50;;;2.13;;
9823;SDS011;4951;50.778;7.196;2022-12-26T08:29:02;3.43;;;2.30;;
9823;SDS011;4951;50.778;7.196;2022-12-26T08:31:29;2.33;;;2.13;;
9823;SDS011;4951;50.778;7.196;2022-12-26T08:33:56;2.63;;;1.60;;
9823;SDS011;4951;50.778;7.196;2022-12-26T08:36:23;3.13;;;2.30;;
9823;SDS011;4951;50.778;7.196;2022-12-26T08:38:51;3.50;;;3.00;;
9823;SDS011;4951;50.778;7.196;2022-12-26T08:41:21;3.10;;;2.80;;
9823;SDS011;4951;50.778;7.196;2022-12-26T08:43:49;5.17;;;3.20;;
9823;SDS011;4951;50.778;7.196;2022-12-26T08:46:17;4.63;;;4.23;;
9823;SDS011;4951;50.778;7.196;2022-12-26T08:48:46;4.60;;;4.00;;
9823;SDS011;4951;50.778;7.196;2022-12-26T08:51:14;5.53;;;5.03;;
9823;SDS011;4951;50.778;7.196;2022-12-26T08:53:42;5.10;;;4.70;;
9823;SDS011;4951;50.778;7.196;2022-12-26T08:56:13;5.30;;;4.80;;
9823;SDS011;4951;50.778;7.196;2022-12-26T08:58:41;5.60;;;4.97;;
9823;SDS011;4951;50.778;7.196;2022-12-26T09:01:09;5.40;;;4.90;;
9823;SDS011;4951;50.778;7.196;2022-12-26T09:03:38;6.63;;;5.87;;
9823;SDS011;4951;50.778;7.196;2022-12-26T09:06:05;8.73;;;5.77;;
9823;SDS011;4951;50.778;7.196;2022-12-26T09:08:33;5.20;;;4.17;;
9823;SDS011;4951;50.778;7.196;2022-12-26T09:11:01;5.20;;;4.00;;
9823;SDS011;4951;50.778;7.196;2022-12-26T09:13:31;6.97;;;6.27;;
9823;SDS011;4951;50.778;7.196;2022-12-26T09:16:09;6.23;;;5.63;;
9823;SDS011;4951;50.778;7.196;2022-12-26T09:18:37;4.93;;;4.53;;
9823;SDS011;4951;50.778;7.196;2022-12-26T09:21:05;6.50;;;5.90;;
9823;SDS011;4951;50.778;7.196;2022-12-26T09:23:34;3.70;;;3.27;;
9823;SDS011;4951;50.778;7.196;2022-12-26T09:26:03;6.70;;;6.10;;
9823;SDS011;4951;50.778;7.196;2022-12-26T09:28:34;5.83;;;5.23;;
9823;SDS011;4951;50.778;7.196;2022-12-26T09:31:02;5.20;;;3.97;;
9823;SDS011;4951;50.778;7.196;2022-12-26T09:33:33;4.80;;;3.90;;
9823;SDS011;4951;50.778;7.196;2022-12-26T09:36:03;3.90;;;3.50;;
9823;SDS011;4951;50.778;7.196;2022-12-26T09:38:31;5.17;;;3.77;;
9823;SDS011;4951;50.778;7.196;2022-12-26T09:41:01;8.60;;;7.37;;
9823;SDS011;4951;50.778;7.196;2022-12-26T09:43:46;7.43;;;6.07;;
9823;SDS011;4951;50.778;7.196;2022-12-26T09:46:23;6.43;;;5.43;;
9823;SDS011;4951;50.778;7.196;2022-12-26T09:48:57;4.40;;;3.67;;
9823;SDS011;4951;50.778;7.196;2022-12-26T09:51:32;7.00;;;3.60;;
9823;SDS011;4951;50.778;7.196;2022-12-26T09:54:01;6.33;;;4.70;;
9823;SDS011;4951;50.778;7.196;2022-12-26T09:56:31;4.60;;;4.10;;
9823;SDS011;4951;50.778;7.196;2022-12-26T09:59:04;7.23;;;4.77;;
9823;SDS011;4951;50.778;7.196;2022-12-26T10:01:36;5.80;;;4.20;;
9823;SDS011;4951;50.778;7.196;2022-12-26T10:04:06;5.00;;;4.50;;
9823;SDS011;4951;50.778;7.196;2022-12-26T10:06:35;6.97;;;4.67;;
9823;SDS011;4951;50.778;7.196;2022-12-26T10:09:19;4.83;;;4.33;;
9823;SDS011;4951;50.778;7.196;2022-12-26T10:12:00;4.53;;;3.93;;
9823;SDS011;4951;50.778;7.196;2022-12-26T10:14:43;6.33;;;4.73;;
9823;SDS011;4951;50.778;7.196;2022-12-26T10:17:18;5.00;;;3.90;;
9823;SDS011;4951;50.778;7.196;2022-12-26T10:19:53;6.37;;;5.20;;
9823;SDS011;4951;50.778;7.196;2022-12-26T10:22:35;6.87;;;4.03;;
9823;SDS011;4951;50.778;7.196;2022-12-26T10:25:15;6.23;;;3.60;;
9823;SDS011;4951;50.778;7.196;2022-12-26T10:27:46;6.10;;;4.60;;
9823;SDS011;4951;50.778;7.196;2022-12-26T10:30:18;4.13;;;3.00;;
9823;SDS011;4951;50.778;7.196;2022-12-26T10:32:50;3.13;;;2.30;;
9823;SDS011;4951;50.778;7.196;2022-12-26T10:35:21;3.47;;;2.67;;
9823;SDS011;4951;50.778;7.196;2022-12-26T10:37:53;2.37;;;1.80;;
9823;SDS011;4951;50.778;7.196;2022-12-26T10:40:24;3.37;;;1.83;;
9823;SDS011;4951;50.778;7.196;2022-12-26T10:42:58;3.13;;;1.60;;
9823;SDS011;4951;50.778;7.196;2022-12-26T10:45:35;4.00;;;1.50;;
9823;SDS011;4951;50.778;7.196;2022-12-26T10:48:09;1.70;;;1.30;;
9823;SDS011;4951;50.778;7.196;2022-12-26T10:50:40;2.13;;;1.27;;
9823;SDS011;4951;50.778;7.196;2022-12-26T10:53:12;2.87;;;1.20;;
9823;SDS011;4951;50.778;7.196;2022-12-26T10:55:42;1.30;;;1.20;;
9823;SDS011;4951;50.778;7.196;2022-12-26T10:58:12;3.57;;;1.50;;
9823;SDS011;4951;50.778;7.196;2022-12-26T11:00:43;2.20;;;1.50;;
9823;SDS011;4951;50.778;7.196;2022-12-26T11:03:11;2.83;;;1.50;;
9823;SDS011;4951;50.778;7.196;2022-12-26T11:05:40;3.00;;;1.20;;
9823;SDS011;4951;50.778;7.196;2022-12-26T11:08:14;3.57;;;1.80;;
9823;SDS011;4951;50.778;7.196;2022-12-26T11:10:45;4.53;;;4.00;;
9823;SDS011;4951;50.778;7.196;2022-12-26T11:13:31;3.93;;;1.70;;
9823;SDS011;4951;50.778;7.196;2022-12-26T11:16:06;2.90;;;1.30;;
9823;SDS011;4951;50.778;7.196;2022-12-26T11:18:34;3.33;;;1.80;;
9823;SDS011;4951;50.778;7.196;2022-12-26T11:21:10;2.60;;;1.20;;
9823;SDS011;4951;50.778;7.196;2022-12-26T11:23:39;2.03;;;1.17;;
9823;SDS011;4951;50.778;7.196;2022-12-26T11:26:17;1.87;;;1.20;;
9823;SDS011;4951;50.778;7.196;2022-12-26T11:28:47;1.77;;;1.10;;
9823;SDS011;4951;50.778;7.196;2022-12-26T11:31:31;2.83;;;1.23;;
9823;SDS011;4951;50.778;7.196;2022-12-26T11:33:58;3.13;;;1.50;;
9823;SDS011;4951;50.778;7.196;2022-12-26T11:36:27;3.23;;;1.40;;
9823;SDS011;4951;50.778;7.196;2022-12-26T11:38:57;3.57;;;1.50;;
9823;SDS011;4951;50.778;7.196;2022-12-26T11:41:32;4.23;;;1.37;;
9823;SDS011;4951;50.778;7.196;2022-12-26T11:44:21;2.77;;;1.30;;
9823;SDS011;4951;50.778;7.196;2022-12-26T11:46:53;2.27;;;1.23;;
9823;SDS011;4951;50.778;7.196;2022-12-26T11:49:24;2.47;;;1.40;;
9823;SDS011;4951;50.778;7.196;2022-12-26T11:51:58;3.47;;;1.30;;
9823;SDS011;4951;50.778;7.196;2022-12-26T11:54:32;2.87;;;1.13;;
9823;SDS011;4951;50.778;7.196;2022-12-26T11:57:04;3.03;;;1.40;;
9823;SDS011;4951;50.778;7.196;2022-12-26T11:59:40;1.47;;;1.00;;
9823;SDS011;4951;50.778;7.196;2022-12-26T12:02:20;2.63;;;1.40;;
9823;SDS011;4951;50.778;7.196;2022-12-26T12:04:53;2.47;;;1.30;;
9823;SDS011;4951;50.778;7.196;2022-12-26T12:07:33;5.33;;;1.20;;
9823;SDS011;4951;50.778;7.196;2022-12-26T12:10:38;1.93;;;1.07;;
9823;SDS011;4951;50.778;7.196;2022-12-26T12:13:20;4.13;;;1.37;;
9823;SDS011;4951;50.778;7.196;2022-12-26T12:15:56;3.03;;;1.23;;
9823;SDS011;4951;50.778;7.196;2022-12-26T12:18:34;1.93;;;1.10;;
9823;SDS011;4951;50.778;7.196;2022-12-26T12:21:11;3.50;;;1.47;;
9823;SDS011;4951;50.778;7.196;2022-12-26T12:23:47;4.23;;;2.70;;
9823;SDS011;4951;50.778;7.196;2022-12-26T12:26:31;3.23;;;1.20;;
9823;SDS011;4951;50.778;7.196;2022-12-26T12:29:10;3.17;;;1.33;;
9823;SDS011;4951;50.778;7.196;2022-12-26T12:31:55;2.80;;;1.57;;
9823;SDS011;4951;50.778;7.196;2022-12-26T12:34:40;2.90;;;1.40;;
9823;SDS011;4951;50.778;7.196;2022-12-26T12:37:27;2.07;;;1.17;;
9823;SDS011;4951;50.778;7.196;2022-12-26T12:40:06;2.53;;;1.40;;
9823;SDS011;4951;50.778;7.196;2022-12-26T12:42:49;2.27;;;1.27;;
9823;SDS011;4951;50.778;7.196;2022-12-26T12:45:28;1.53;;;1.10;;
9823;SDS011;4951;50.778;7.196;2022-12-26T12:48:06;3.97;;;1.50;;
9823;SDS011;4951;50.778;7.196;2022-12-26T12:50:48;2.47;;;1.20;;
9823;SDS011;4951;50.778;7.196;2022-12-26T12:53:25;1.80;;;1.40;;
9823;SDS011;4951;50.778;7.196;2022-12-26T12:56:06;3.53;;;1.50;;
9823;SDS011;4951;50.778;7.196;2022-12-26T12:58:44;1.00;;;0.90;;
9823;SDS011;4951;50.778;7.196;2022-12-26T13:01:18;1.33;;;1.20;;
9823;SDS011;4951;50.778;7.196;2022-12-26T13:03:49;3.60;;;1.40;;
9823;SDS011;4951;50.778;7.196;2022-12-26T13:06:30;3.67;;;1.20;;
9823;SDS011;4951;50.778;7.196;2022-12-26T13:09:03;3.43;;;1.33;;
9823;SDS011;4951;50.778;7.196;2022-12-26T13:11:39;3.40;;;1.03;;
9823;SDS011;4951;50.778;7.196;2022-12-26T13:14:10;3.03;;;1.33;;
9823;SDS011;4951;50.778;7.196;2022-12-26T13:16:42;1.27;;;1.13;;
9823;SDS011;4951;50.778;7.196;2022-12-26T13:19:15;3.60;;;1.10;;
9823;SDS011;4951;50.778;7.196;2022-12-26T13:21:51;2.27;;;1.00;;
9823;SDS011;4951;50.778;7.196;2022-12-26T13:24:24;2.40;;;1.10;;
9823;SDS011;4951;50.778;7.196;2022-12-26T13:26:59;3.33;;;2.23;;
9823;SDS011;4951;50.778;7.196;2022-12-26T13:29:35;2.30;;;1.20;;
9823;SDS011;4951;50.778;7.196;2022-12-26T13:32:13;1.30;;;0.90;;
9823;SDS011;4951;50.778;7.196;2022-12-26T13:34:42;1.40;;;1.00;;
9823;SDS011;4951;50.778;7.196;2022-12-26T13:40:14;4.60;;;1.40;;
9823;SDS011;4951;50.778;7.196;2022-12-26T13:42:44;2.50;;;1.30;;
9823;SDS011;4951;50.778;7.196;2022-12-26T13:54:15;3.20;;;1.60;;
9823;SDS011;4951;50.778;7.196;2022-12-26T13:56:58;1.67;;;1.40;;
9823;SDS011;4951;50.778;7.196;2022-12-26T13:59:38;3.10;;;1.50;;
9823;SDS011;4951;50.778;7.196;2022-12-26T14:02:15;1.97;;;1.30;;
9823;SDS011;4951;50.778;7.196;2022-12-26T14:05:20;1.53;;;1.20;;
9823;SDS011;4951;50.778;7.196;2022-12-26T14:07:54;2.40;;;1.23;;
9823;SDS011;4951;50.778;7.196;2022-12-26T14:10:27;4.33;;;1.37;;
9823;SDS011;4951;50.778;7.196;2022-12-26T14:13:05;3.00;;;1.60;;
9823;SDS011;4951;50.778;7.196;2022-12-26T14:15:47;2.57;;;1.33;;
9823;SDS011;4951;50.778;7.196;2022-12-26T14:18:22;1.10;;;1.00;;
9823;SDS011;4951;50.778;7.196;2022-12-26T14:21:07;1.63;;;1.10;;
9823;SDS011;4951;50.778;7.196;2022-12-26T14:24:03;1.50;;;1.00;;
9823;SDS011;4951;50.778;7.196;2022-12-26T14:26:55;1.30;;;1.20;;
9823;SDS011;4951;50.778;7.196;2022-12-26T14:29:53;2.13;;;1.13;;
9823;SDS011;4951;50.778;7.196;2022-12-26T14:32:29;2.50;;;1.10;;
9823;SDS011;4951;50.778;7.196;2022-12-26T14:35:08;1.23;;;1.00;;
9823;SDS011;4951;50.778;7.196;2022-12-26T14:37:43;2.47;;;1.33;;
9823;SDS011;4951;50.778;7.196;2022-12-26T14:40:24;1.33;;;1.00;;
9823;SDS011;4951;50.778;7.196;2022-12-26T14:43:04;3.00;;;1.20;;
9823;SDS011;4951;50.778;7.196;2022-12-26T14:45:37;2.37;;;1.43;;
9823;SDS011;4951;50.778;7.196;2022-12-26T14:51:35;3.67;;;1.73;;
9823;SDS011;4951;50.778;7.196;2022-12-26T14:54:16;2.97;;;1.47;;
9823;SDS011;4951;50.778;7.196;2022-12-26T15:00:15;5.87;;;2.07;;
9823;SDS011;4951;50.778;7.196;2022-12-26T15:09:10;3.27;;;2.27;;
9823;SDS011;4951;50.778;7.196;2022-12-26T15:12:02;5.47;;;3.43;;
9823;SDS011;4951;50.778;7.196;2022-12-26T15:18:03;8.33;;;5.57;;
9823;SDS011;4951;50.778;7.196;2022-12-26T15:21:09;14.00;;;10.33;;
9823;SDS011;4951;50.778;7.196;2022-12-26T15:23:56;10.43;;;8.57;;
9823;SDS011;4951;50.778;7.196;2022-12-26T15:29:56;4.97;;;3.50;;
9823;SDS011;4951;50.778;7.196;2022-12-26T15:32:40;5.20;;;2.97;;
9823;SDS011;4951;50.778;7.196;2022-12-26T15:35:13;6.23;;;4.13;;
9823;SDS011;4951;50.778;7.196;2022-12-26T15:38:03;5.73;;;2.80;;
9823;SDS011;4951;50.778;7.196;2022-12-26T15:40:51;3.67;;;2.70;;
9823;SDS011;4951;50.778;7.196;2022-12-26T15:43:29;4.60;;;2.30;;
9823;SDS011;4951;50.778;7.196;2022-12-26T15:46:20;4.97;;;2.50;;
9823;SDS011;4951;50.778;7.196;2022-12-26T15:51:47;5.10;;;2.60;;
9823;SDS011;4951;50.778;7.196;2022-12-26T15:54:25;4.27;;;2.30;;
9823;SDS011;4951;50.778;7.196;2022-12-26T15:57:13;5.20;;;2.30;;
9823;SDS011;4951;50.778;7.196;2022-12-26T15:59:59;5.00;;;2.40;;
9823;SDS011;4951;50.778;7.196;2022-12-26T16:02:42;4.70;;;2.40;;
9823;SDS011;4951;50.778;7.196;2022-12-26T16:05:24;8.50;;;3.10;;
9823;SDS011;4951;50.778;7.196;2022-12-26T16:08:02;10.20;;;3.03;;
9823;SDS011;4951;50.778;7.196;2022-12-26T16:10:45;4.23;;;2.50;;
9823;SDS011;4951;50.778;7.196;2022-12-26T16:13:15;10.17;;;2.70;;
9823;SDS011;4951;50.778;7.196;2022-12-26T16:15:48;5.23;;;2.33;;
9823;SDS011;4951;50.778;7.196;2022-12-26T16:18:18;4.00;;;2.20;;
9823;SDS011;4951;50.778;7.196;2022-12-26T16:20:46;5.73;;;2.83;;
9823;SDS011;4951;50.778;7.196;2022-12-26T16:23:34;6.77;;;2.90;;
9823;SDS011;4951;50.778;7.196;2022-12-26T16:26:05;4.50;;;2.40;;
9823;SDS011;4951;50.778;7.196;2022-12-26T16:28:33;5.77;;;2.40;;
9823;SDS011;4951;50.778;7.196;2022-12-26T16:31:02;6.47;;;2.27;;
9823;SDS011;4951;50.778;7.196;2022-12-26T16:33:31;4.40;;;2.20;;
9823;SDS011;4951;50.778;7.196;2022-12-26T16:36:04;6.10;;;2.33;;
9823;SDS011;4951;50.778;7.196;2022-12-26T16:38:33;5.90;;;2.50;;